createdAt,value
2023-02-23T13:41:11.158Z,22.89
2023-02-23T13:45:11.318Z,23.75
2023-02-23T13:49:11.308Z,23.67
2023-02-23T13:53:11.240Z,22.88
2023-02-23T13:57:11.318Z,22.51
2023-02-23T14:01:11.678Z,22.75
2023-02-23T14:05:11.132Z,22.87
2023-02-23T14:09:11.156Z,22.84
2023-02-23T14:13:11.192Z,22.76
2023-02-23T14:17:11.049Z,22.66
2023-02-23T14:21:11.168Z,22.58
2023-02-23T14:25:11.031Z,22.51
2023-02-23T14:29:11.247Z,22.47
2023-02-23T14:33:21.548Z,22.44
2023-02-23T14:37:12.381Z,22.39
2023-02-23T14:41:11.362Z,22.37
2023-02-23T14:45:11.440Z,22.35
2023-02-23T14:49:11.403Z,22.33
2023-02-23T14:53:11.404Z,22.31
2023-02-23T14:57:11.377Z,22.30
2023-02-23T15:01:11.259Z,22.30
2023-02-23T15:05:11.252Z,22.28
2023-02-23T15:09:11.214Z,22.28
2023-02-23T15:13:11.674Z,22.28
2023-02-23T15:17:11.680Z,22.29
2023-02-23T15:21:11.104Z,22.28
2023-02-23T15:25:11.105Z,22.27
2023-02-23T15:29:11.070Z,22.27
2023-02-23T15:33:11.031Z,22.26
2023-02-23T15:37:11.171Z,22.26
2023-02-23T15:41:10.950Z,22.25
2023-02-23T15:45:10.904Z,22.24
2023-02-23T15:49:10.902Z,22.24
2023-02-23T15:53:10.831Z,22.24
2023-02-23T15:57:10.823Z,22.23
2023-02-23T16:01:10.828Z,22.21
2023-02-23T16:05:10.761Z,22.22
2023-02-23T16:09:11.010Z,22.22
2023-02-23T16:13:11.149Z,22.21
2023-02-23T16:17:12.967Z,22.21
2023-02-23T16:21:11.561Z,22.20
2023-02-23T16:25:11.749Z,22.20
2023-02-23T16:29:11.979Z,22.18
2023-02-23T16:33:12.031Z,22.18
2023-02-23T16:37:11.908Z,22.18
2023-02-23T16:41:11.847Z,22.17
2023-02-23T16:45:11.829Z,22.17
2023-02-23T16:49:11.824Z,22.16
2023-02-23T16:53:11.774Z,22.15
2023-02-23T16:57:11.697Z,22.15
2023-02-23T17:01:11.678Z,22.15
2023-02-23T17:05:11.658Z,22.14
2023-02-23T17:09:11.635Z,22.14
2023-02-23T17:13:11.613Z,22.14
2023-02-23T17:17:11.749Z,22.14
2023-02-23T17:21:11.954Z,22.13
2023-02-23T17:25:12.176Z,22.13
2023-02-23T17:29:12.392Z,22.11
2023-02-23T17:33:12.698Z,22.11
2023-02-23T17:37:12.757Z,22.11
2023-02-23T17:41:12.730Z,22.11
2023-02-23T17:45:12.666Z,22.09
2023-02-23T17:49:12.682Z,22.09
2023-02-23T17:53:12.638Z,22.09
2023-02-23T17:57:12.576Z,22.09
2023-02-23T18:01:12.609Z,22.08
2023-02-23T18:05:12.512Z,22.09
2023-02-23T18:09:12.478Z,22.07
2023-02-23T18:13:12.449Z,22.08
2023-02-23T18:17:12.387Z,22.08
2023-02-23T18:21:12.389Z,22.07
2023-02-23T18:25:12.565Z,22.07
2023-02-23T18:29:12.796Z,22.06
2023-02-23T18:33:12.921Z,22.05
2023-02-23T18:37:12.721Z,22.06
2023-02-23T18:41:12.721Z,22.05
2023-02-23T18:45:12.674Z,22.05
2023-02-23T18:49:12.632Z,22.05
2023-02-23T18:53:12.618Z,22.05
2023-02-23T18:57:12.585Z,22.04
2023-02-23T19:01:12.582Z,22.05
2023-02-23T19:05:12.510Z,22.04
2023-02-23T19:09:12.655Z,22.04
2023-02-23T19:13:12.571Z,22.03
2023-02-23T19:17:12.718Z,22.03
2023-02-23T19:21:12.870Z,22.03
2023-02-23T19:25:13.068Z,22.03
2023-02-23T19:29:13.271Z,22.02
2023-02-23T19:33:13.528Z,22.02
2023-02-23T19:37:13.377Z,22.02
2023-02-23T19:41:13.648Z,22.02
2023-02-23T19:45:13.719Z,22.01
2023-02-23T19:49:13.650Z,22.02
2023-02-23T19:53:13.636Z,22.01
2023-02-23T19:57:13.627Z,22.01
2023-02-23T20:01:13.534Z,22.00
2023-02-23T20:05:13.610Z,22.00
2023-02-23T20:09:13.499Z,21.99
2023-02-23T20:13:13.464Z,21.99
2023-02-23T20:17:13.406Z,21.99
2023-02-23T20:21:13.445Z,21.98
2023-02-23T20:25:13.362Z,21.98
2023-02-23T20:29:14.501Z,21.98
2023-02-23T20:33:13.284Z,21.98
2023-02-23T20:37:13.234Z,21.99
2023-02-23T20:41:13.800Z,21.97
2023-02-23T20:45:13.134Z,21.97
2023-02-23T20:49:13.123Z,21.97
2023-02-23T20:53:13.077Z,21.97
2023-02-23T20:57:13.079Z,21.97
2023-02-23T21:01:13.105Z,21.96
2023-02-23T21:05:12.985Z,21.96
2023-02-23T21:09:12.981Z,21.96
2023-02-23T21:13:12.890Z,21.96
2023-02-23T21:17:12.864Z,21.96
2023-02-23T21:21:12.917Z,21.97
2023-02-23T21:25:12.936Z,21.97
2023-02-23T21:29:12.933Z,21.98
2023-02-23T21:33:12.994Z,21.97
2023-02-23T21:37:13.028Z,21.98
2023-02-23T21:41:13.109Z,21.98
2023-02-23T21:45:13.155Z,21.98
2023-02-23T21:49:13.144Z,21.97
2023-02-23T21:53:13.174Z,21.97
2023-02-23T21:57:13.156Z,21.96
2023-02-23T22:01:13.293Z,21.96
2023-02-23T22:05:13.130Z,21.95
2023-02-23T22:09:13.209Z,21.95
2023-02-23T22:13:13.205Z,21.94
2023-02-23T22:17:13.152Z,21.94
2023-02-23T22:21:13.145Z,21.94
2023-02-23T22:25:13.182Z,21.94
2023-02-23T22:29:13.147Z,21.94
2023-02-23T22:33:13.305Z,21.93
2023-02-23T22:37:13.134Z,21.93
2023-02-23T22:41:13.139Z,21.91
2023-02-23T22:45:13.193Z,21.91
2023-02-23T22:49:13.125Z,21.91
2023-02-23T22:53:13.206Z,21.92
2023-02-23T22:57:13.105Z,21.90
2023-02-23T23:01:13.127Z,21.91
2023-02-23T23:05:13.310Z,21.89
2023-02-23T23:09:13.243Z,21.88
2023-02-23T23:13:13.191Z,21.88
2023-02-23T23:17:13.215Z,21.89
2023-02-23T23:21:13.190Z,21.88
2023-02-23T23:25:13.162Z,21.87
2023-02-23T23:29:13.140Z,21.87
2023-02-23T23:33:13.322Z,21.87
2023-02-23T23:37:13.212Z,21.87
2023-02-23T23:41:13.185Z,21.87
2023-02-23T23:45:13.159Z,21.86
2023-02-23T23:49:13.202Z,21.85
2023-02-23T23:53:13.189Z,21.86
2023-02-23T23:57:13.219Z,21.86
